createdAt,value
2022-12-15T00:02:40.865Z,18.08
2022-12-15T00:05:27.816Z,17.92
2022-12-15T00:08:13.928Z,18.25
2022-12-15T00:11:00.191Z,19.17
2022-12-15T00:13:46.088Z,18.70
2022-12-15T00:16:32.674Z,20.92
2022-12-15T00:19:18.539Z,20.90
2022-12-15T00:22:05.133Z,20.12
2022-12-15T00:24:51.342Z,20.85
2022-12-15T00:27:37.891Z,20.45
2022-12-15T00:30:25.327Z,20.27
2022-12-15T00:33:11.742Z,22.17
2022-12-15T00:35:57.561Z,21.27
2022-12-15T00:38:41.610Z,20.88
2022-12-15T00:41:09.500Z,19.77
2022-12-15T00:43:37.751Z,20.80
2022-12-15T00:46:24.281Z,20.25
2022-12-15T00:48:52.109Z,20.45
2022-12-15T00:51:19.784Z,20.58
2022-12-15T00:54:06.387Z,17.55
2022-12-15T00:56:54.384Z,17.87
2022-12-15T00:59:40.610Z,17.58
2022-12-15T01:02:26.726Z,18.40
2022-12-15T01:05:13.118Z,19.30
2022-12-15T01:07:59.485Z,19.27
2022-12-15T01:10:45.824Z,18.45
2022-12-15T01:13:32.977Z,17.85
2022-12-15T01:16:19.558Z,17.02
2022-12-15T01:19:06.914Z,18.20
2022-12-15T01:21:34.261Z,18.02
2022-12-15T01:24:01.909Z,20.25
2022-12-15T01:26:29.256Z,19.73
2022-12-15T01:28:58.699Z,19.85
2022-12-15T01:31:26.398Z,19.83
2022-12-15T01:33:54.914Z,18.87
2022-12-15T01:36:22.317Z,17.50
2022-12-15T01:38:54.057Z,17.42
2022-12-15T01:41:22.537Z,18.20
2022-12-15T01:43:50.226Z,17.52
2022-12-15T01:46:19.503Z,18.02
2022-12-15T01:48:48.332Z,18.45
2022-12-15T01:51:31.185Z,17.55
2022-12-15T01:54:03.884Z,19.15
2022-12-15T01:56:37.668Z,18.48
2022-12-15T01:59:08.139Z,18.73
2022-12-15T02:01:36.128Z,17.67
2022-12-15T02:04:04.023Z,17.48
2022-12-15T02:06:31.813Z,17.70
2022-12-15T02:09:00.159Z,17.92
2022-12-15T02:12:21.445Z,18.17
2022-12-15T02:15:09.415Z,19.17
2022-12-15T02:18:07.432Z,18.98
2022-12-15T02:20:59.599Z,19.08
2022-12-15T02:23:51.254Z,19.77
2022-12-15T02:26:42.690Z,18.75
2022-12-15T02:29:37.579Z,18.48
2022-12-15T02:32:22.235Z,19.62
2022-12-15T02:34:57.864Z,19.45
2022-12-15T02:37:31.331Z,19.08
2022-12-15T02:39:58.982Z,20.08
2022-12-15T02:42:29.168Z,18.98
2022-12-15T02:45:07.290Z,18.35
2022-12-15T02:47:57.119Z,20.37
2022-12-15T02:51:05.934Z,19.00
2022-12-15T02:54:07.556Z,19.33
2022-12-15T02:56:44.284Z,18.50
2022-12-15T02:59:24.447Z,18.15
2022-12-15T03:01:55.632Z,18.92
2022-12-15T03:04:23.524Z,17.55
2022-12-15T03:07:01.134Z,18.80
2022-12-15T03:09:29.126Z,19.52
2022-12-15T03:11:56.660Z,19.30
2022-12-15T03:14:25.556Z,18.45
2022-12-15T03:16:53.994Z,19.58
2022-12-15T03:19:21.425Z,18.87
2022-12-15T03:21:48.792Z,17.20
2022-12-15T03:24:16.431Z,18.70
2022-12-15T03:26:44.215Z,18.55
2022-12-15T03:29:11.540Z,19.02
2022-12-15T03:31:39.190Z,20.23
2022-12-15T03:34:06.554Z,20.88
2022-12-15T03:36:34.097Z,20.02
2022-12-15T03:39:01.740Z,19.75
2022-12-15T03:41:29.164Z,19.75
2022-12-15T03:43:56.514Z,19.55
2022-12-15T03:46:24.213Z,19.40
2022-12-15T03:48:51.521Z,21.08
2022-12-15T03:51:19.241Z,21.67
2022-12-15T03:53:49.908Z,21.98
2022-12-15T03:56:17.887Z,21.75
2022-12-15T03:58:45.274Z,21.52
2022-12-15T04:01:29.463Z,21.40
2022-12-15T04:04:00.863Z,21.90
2022-12-15T04:06:30.113Z,23.25
2022-12-15T04:08:58.715Z,21.62
2022-12-15T04:11:26.107Z,21.95
2022-12-15T04:13:53.484Z,22.37
2022-12-15T04:16:21.296Z,20.83
2022-12-15T04:19:11.560Z,23.08
2022-12-15T04:21:39.212Z,22.08
2022-12-15T04:24:25.594Z,22.85
2022-12-15T04:27:11.647Z,22.62
2022-12-15T04:29:57.593Z,22.20
2022-12-15T04:32:43.748Z,23.83
2022-12-15T04:35:30.255Z,23.98
2022-12-15T04:38:16.776Z,24.55
2022-12-15T04:41:02.760Z,24.87
2022-12-15T04:43:48.776Z,24.30
2022-12-15T04:46:34.918Z,23.42
2022-12-15T04:49:21.047Z,24.00
2022-12-15T04:52:06.860Z,21.77
2022-12-15T04:54:53.504Z,21.10
2022-12-15T04:57:39.452Z,21.00
2022-12-15T05:00:26.250Z,20.85
2022-12-15T05:03:17.948Z,21.45
2022-12-15T05:06:04.399Z,24.90
2022-12-15T05:08:50.517Z,22.15
2022-12-15T05:11:36.884Z,23.62
2022-12-15T05:14:22.869Z,22.40
2022-12-15T05:17:08.951Z,24.37
2022-12-15T05:19:55.085Z,28.87
2022-12-15T05:22:41.499Z,30.08
2022-12-15T05:25:27.474Z,26.85
2022-12-15T05:28:13.821Z,28.15
2022-12-15T05:30:59.807Z,24.63
2022-12-15T05:33:27.726Z,23.87
2022-12-15T05:35:58.301Z,22.48
2022-12-15T05:38:25.769Z,23.85
2022-12-15T05:40:53.401Z,23.35
2022-12-15T05:43:26.223Z,23.87
2022-12-15T05:45:54.308Z,25.05
2022-12-15T05:48:21.718Z,24.77
2022-12-15T05:50:50.570Z,27.65
2022-12-15T05:53:18.241Z,25.33
2022-12-15T05:55:45.581Z,23.55
2022-12-15T05:58:13.006Z,25.60
2022-12-15T06:00:40.705Z,25.85
2022-12-15T06:03:08.375Z,24.95
2022-12-15T06:05:35.791Z,26.50
2022-12-15T06:08:03.137Z,23.83
2022-12-15T06:10:30.809Z,25.15
2022-12-15T06:12:58.170Z,24.67
2022-12-15T06:15:25.535Z,26.70
2022-12-15T06:17:55.782Z,24.30
2022-12-15T06:20:23.169Z,28.60
2022-12-15T06:22:50.523Z,26.70
2022-12-15T06:25:18.167Z,25.50
2022-12-15T06:27:45.528Z,24.77
2022-12-15T06:30:13.548Z,26.00
2022-12-15T06:32:41.307Z,26.40
2022-12-15T06:35:08.681Z,25.15
2022-12-15T06:37:36.066Z,26.87
2022-12-15T06:40:03.955Z,28.12
2022-12-15T06:42:31.307Z,25.55
2022-12-15T06:44:58.693Z,23.95
2022-12-15T06:47:27.114Z,24.08
2022-12-15T06:49:55.392Z,25.70
2022-12-15T06:52:22.759Z,23.50
2022-12-15T06:54:50.556Z,25.35
2022-12-15T06:57:17.938Z,25.83
2022-12-15T06:59:45.416Z,26.62
2022-12-15T07:02:22.458Z,25.52
2022-12-15T07:04:53.054Z,26.02
2022-12-15T07:07:20.857Z,26.00
2022-12-15T07:09:48.307Z,25.58
2022-12-15T07:12:15.644Z,25.52
2022-12-15T07:14:44.241Z,26.80
2022-12-15T07:17:13.830Z,27.35
2022-12-15T07:19:41.384Z,27.80
2022-12-15T07:22:09.491Z,25.88
2022-12-15T07:24:37.091Z,27.00
2022-12-15T07:27:04.547Z,28.02
2022-12-15T07:29:32.269Z,26.48
2022-12-15T07:32:01.126Z,27.17
2022-12-15T07:34:28.556Z,28.20
2022-12-15T07:36:56.210Z,30.45
2022-12-15T07:39:24.530Z,28.58
2022-12-15T07:41:52.002Z,28.55
2022-12-15T07:44:19.824Z,29.33
2022-12-15T07:46:49.356Z,28.33
2022-12-15T07:49:17.740Z,28.00
2022-12-15T07:51:45.380Z,27.80
2022-12-15T07:54:13.802Z,27.98
2022-12-15T07:56:41.375Z,28.67
2022-12-15T07:59:09.899Z,29.08
2022-12-15T08:01:37.612Z,29.30
2022-12-15T08:04:06.159Z,28.90
2022-12-15T08:06:34.114Z,27.98
2022-12-15T08:09:01.849Z,27.27
2022-12-15T08:11:34.078Z,27.40
2022-12-15T08:14:03.670Z,27.45
2022-12-15T08:16:34.533Z,26.25
2022-12-15T08:19:03.660Z,27.37
2022-12-15T08:21:31.799Z,27.65
2022-12-15T08:24:00.992Z,27.27
2022-12-15T08:26:30.593Z,26.20
2022-12-15T08:29:31.824Z,26.95
2022-12-15T08:31:51.742Z,26.55
2022-12-15T08:34:19.679Z,25.88
2022-12-15T08:36:47.119Z,23.87
2022-12-15T08:39:14.484Z,25.90
2022-12-15T08:41:42.469Z,25.23
2022-12-15T08:44:10.101Z,25.85
2022-12-15T08:46:37.642Z,26.27
2022-12-15T08:49:05.454Z,27.00
2022-12-15T08:51:33.433Z,28.40
2022-12-15T08:54:01.627Z,29.50
2022-12-15T08:56:29.413Z,28.42
2022-12-15T08:59:01.645Z,28.58
2022-12-15T09:01:32.351Z,29.40
2022-12-15T09:04:01.548Z,28.98
2022-12-15T09:06:31.525Z,26.48
2022-12-15T09:09:00.968Z,26.92
2022-12-15T09:11:29.791Z,27.02
2022-12-15T09:13:57.665Z,25.85
2022-12-15T09:16:25.660Z,25.45
2022-12-15T09:18:56.631Z,27.17
2022-12-15T09:21:26.700Z,26.33
2022-12-15T09:23:57.703Z,27.15
2022-12-15T09:26:25.080Z,26.83
2022-12-15T09:28:53.128Z,27.73
2022-12-15T09:31:23.914Z,27.00
2022-12-15T09:33:53.108Z,26.83
2022-12-15T09:36:21.145Z,26.65
2022-12-15T09:38:48.849Z,25.60
2022-12-15T09:41:28.046Z,24.67
2022-12-15T09:43:58.694Z,26.45
2022-12-15T09:46:54.460Z,26.00
2022-12-15T09:49:55.591Z,26.87
2022-12-15T09:52:26.673Z,26.92
2022-12-15T09:54:54.787Z,25.60
2022-12-15T09:57:41.044Z,25.98
2022-12-15T10:00:15.671Z,26.20
2022-12-15T10:02:55.991Z,26.55
2022-12-15T10:05:50.110Z,26.30
2022-12-15T10:08:17.198Z,25.17
2022-12-15T10:10:57.859Z,28.17
2022-12-15T10:13:38.377Z,27.70
2022-12-15T10:16:16.967Z,26.40
2022-12-15T10:19:07.505Z,27.67
2022-12-15T10:21:36.423Z,27.85
2022-12-15T10:24:26.633Z,26.65
2022-12-15T10:27:18.570Z,29.55
2022-12-15T10:30:02.412Z,28.95
2022-12-15T10:32:51.448Z,29.15
2022-12-15T10:35:28.637Z,27.48
2022-12-15T10:38:04.334Z,27.25
2022-12-15T10:40:58.852Z,28.17
2022-12-15T10:43:37.186Z,29.52
2022-12-15T10:46:25.889Z,30.85
2022-12-15T10:49:00.724Z,30.10
2022-12-15T10:51:33.392Z,29.65
2022-12-15T10:54:00.624Z,29.67
2022-12-15T10:56:33.750Z,30.35
2022-12-15T10:59:30.798Z,29.65
2022-12-15T11:02:23.801Z,29.95
2022-12-15T11:04:59.751Z,31.35
2022-12-15T11:07:33.621Z,30.25
2022-12-15T11:10:08.241Z,31.10
2022-12-15T11:12:52.267Z,29.50
2022-12-15T11:15:22.705Z,30.95
2022-12-15T11:17:56.445Z,30.30
2022-12-15T11:20:29.281Z,29.95
2022-12-15T11:23:09.458Z,30.08
2022-12-15T11:25:42.245Z,31.92
2022-12-15T11:28:15.720Z,33.92
2022-12-15T11:30:46.649Z,34.05
2022-12-15T11:33:14.613Z,32.10
2022-12-15T11:36:20.819Z,30.70
2022-12-15T11:39:13.501Z,29.67
2022-12-15T11:41:56.556Z,28.62
2022-12-15T11:44:35.328Z,31.40
2022-12-15T11:47:20.742Z,31.00
2022-12-15T11:49:53.191Z,32.38
2022-12-15T11:52:39.776Z,31.67
2022-12-15T11:55:13.657Z,30.15
2022-12-15T11:58:19.334Z,31.02
2022-12-15T12:01:23.463Z,29.45
2022-12-15T12:04:20.827Z,29.25
2022-12-15T12:06:57.451Z,30.75
2022-12-15T12:09:35.265Z,29.95
2022-12-15T12:12:29.530Z,29.92
2022-12-15T12:15:12.996Z,30.03
2022-12-15T12:17:41.748Z,30.67
2022-12-15T12:20:17.836Z,29.30
2022-12-15T12:23:06.108Z,32.75
2022-12-15T12:25:40.205Z,31.55
2022-12-15T12:28:17.435Z,33.10
2022-12-15T12:30:48.742Z,30.50
2022-12-15T12:33:36.884Z,30.83
2022-12-15T12:36:13.004Z,30.25
2022-12-15T12:38:46.317Z,30.70
2022-12-15T12:41:24.683Z,29.65
2022-12-15T12:43:55.711Z,31.27
2022-12-15T12:46:27.683Z,31.92
2022-12-15T12:48:57.657Z,32.30
2022-12-15T12:51:25.586Z,31.55
2022-12-15T12:53:53.414Z,31.23
2022-12-15T12:56:36.977Z,31.50
2022-12-15T12:59:26.364Z,31.73
2022-12-15T13:01:56.256Z,31.52
2022-12-15T13:04:30.216Z,31.73
2022-12-15T13:07:01.468Z,31.40
2022-12-15T13:09:43.103Z,33.70
2022-12-15T13:15:30.932Z,31.85
2022-12-15T13:18:06.700Z,37.47
2022-12-15T13:20:36.874Z,36.25
2022-12-15T13:23:16.608Z,33.88
2022-12-15T13:25:51.858Z,32.17
2022-12-15T13:28:27.195Z,37.17
2022-12-15T13:31:23.442Z,34.67
2022-12-15T13:33:51.324Z,30.05
2022-12-15T13:36:37.352Z,30.83
2022-12-15T13:39:24.711Z,48.70
2022-12-15T13:42:32.583Z,33.78
2022-12-15T13:44:51.868Z,34.28
2022-12-15T13:47:25.228Z,34.30
2022-12-15T13:53:17.780Z,31.02
2022-12-15T13:55:39.227Z,34.45
2022-12-15T13:58:16.495Z,34.33
2022-12-15T14:00:55.184Z,33.45
2022-12-15T14:03:23.997Z,45.88
2022-12-15T14:05:56.921Z,45.95
2022-12-15T14:08:28.925Z,43.53
2022-12-15T14:10:59.088Z,42.70
2022-12-15T14:13:32.145Z,39.22
2022-12-15T14:16:17.902Z,35.33
2022-12-15T14:18:45.922Z,34.58
2022-12-15T14:21:23.006Z,35.45
2022-12-15T14:24:36.517Z,37.08
2022-12-15T14:26:38.402Z,38.35
2022-12-15T14:29:06.486Z,35.90
2022-12-15T14:31:33.939Z,35.83
2022-12-15T14:34:08.083Z,36.25
2022-12-15T14:39:06.958Z,33.15
2022-12-15T14:41:40.713Z,36.58
2022-12-15T14:44:38.122Z,40.03
2022-12-15T14:47:09.005Z,37.72
2022-12-15T14:49:41.340Z,38.90
2022-12-15T14:52:28.632Z,37.28
2022-12-15T14:54:58.001Z,34.42
2022-12-15T14:57:41.587Z,37.67
2022-12-15T15:00:32.155Z,35.08
2022-12-15T15:03:09.801Z,43.47
2022-12-15T15:03:12.979Z,32.80
2022-12-15T15:03:19.070Z,36.15
2022-12-15T15:05:50.330Z,34.17
2022-12-15T15:08:33.943Z,34.35
2022-12-15T15:11:29.810Z,37.90
2022-12-15T15:14:00.550Z,34.92
2022-12-15T15:16:28.518Z,36.15
2022-12-15T15:18:56.487Z,36.08
2022-12-15T15:21:26.130Z,37.03
2022-12-15T15:24:04.115Z,40.08
2022-12-15T15:26:31.714Z,39.22
2022-12-15T15:28:59.559Z,37.75
2022-12-15T15:31:41.344Z,39.83
2022-12-15T15:34:09.628Z,40.95
2022-12-15T15:36:38.589Z,40.17
2022-12-15T15:39:15.729Z,43.47
2022-12-15T15:41:43.426Z,38.83
2022-12-15T15:44:15.497Z,38.35
2022-12-15T15:46:52.105Z,37.63
2022-12-15T15:49:20.830Z,38.30
2022-12-15T15:51:49.653Z,38.65
2022-12-15T15:54:19.085Z,37.15
2022-12-15T15:56:46.446Z,39.33
2022-12-15T15:59:16.411Z,40.33
2022-12-15T16:01:46.570Z,36.55
2022-12-15T16:04:14.800Z,36.60
2022-12-15T16:06:47.000Z,35.13
2022-12-15T16:09:16.809Z,35.47
2022-12-15T16:11:45.113Z,35.40
2022-12-15T16:14:14.240Z,35.88
2022-12-15T16:16:42.153Z,36.75
2022-12-15T16:19:09.688Z,36.15
2022-12-15T16:21:37.276Z,35.42
2022-12-15T16:24:09.076Z,36.13
2022-12-15T16:26:38.913Z,35.95
2022-12-15T16:29:14.594Z,37.38
2022-12-15T16:31:45.435Z,34.97
2022-12-15T16:34:19.246Z,36.33
2022-12-15T16:36:46.972Z,36.85
2022-12-15T16:39:26.673Z,38.30
2022-12-15T16:41:55.204Z,38.13
2022-12-15T16:44:24.492Z,35.65
2022-12-15T16:46:52.395Z,34.13
2022-12-15T16:49:20.445Z,33.20
2022-12-15T16:51:50.848Z,31.77
2022-12-15T16:54:21.694Z,31.10
2022-12-15T16:56:49.713Z,30.80
2022-12-15T16:59:35.284Z,29.40
2022-12-15T17:02:28.468Z,31.35
2022-12-15T17:04:56.283Z,30.88
2022-12-15T17:07:25.367Z,32.00
2022-12-15T17:09:52.876Z,29.00
2022-12-15T17:12:20.351Z,29.10
2022-12-15T17:14:48.376Z,29.67
2022-12-15T17:17:17.653Z,30.08
2022-12-15T17:20:11.822Z,29.05
2022-12-15T17:22:33.547Z,29.17
2022-12-15T17:25:01.566Z,26.00
2022-12-15T17:27:29.836Z,26.48
2022-12-15T17:29:58.487Z,26.70
2022-12-15T17:32:28.883Z,28.77
2022-12-15T17:34:56.672Z,26.67
2022-12-15T17:37:30.550Z,26.37
2022-12-15T17:40:04.454Z,26.42
2022-12-15T17:42:32.874Z,24.37
2022-12-15T17:45:00.518Z,25.37
2022-12-15T17:47:30.653Z,23.02
2022-12-15T17:49:58.907Z,24.37
2022-12-15T17:52:29.248Z,24.15
2022-12-15T17:54:58.208Z,22.75
2022-12-15T17:57:26.200Z,24.23
2022-12-15T17:59:53.764Z,22.55
2022-12-15T18:02:21.240Z,22.87
2022-12-15T18:04:49.572Z,24.15
2022-12-15T18:07:22.150Z,23.60
2022-12-15T18:09:51.689Z,23.73
2022-12-15T18:12:26.343Z,22.58
2022-12-15T18:14:55.761Z,22.98
2022-12-15T18:17:24.626Z,22.62
2022-12-15T18:19:56.429Z,21.75
2022-12-15T18:22:24.910Z,25.45
2022-12-15T18:24:54.099Z,23.02
2022-12-15T18:27:30.868Z,25.88
2022-12-15T18:29:59.009Z,21.85
2022-12-15T18:32:27.558Z,21.83
2022-12-15T18:34:55.452Z,24.12
2022-12-15T18:37:25.384Z,25.00
2022-12-15T18:39:53.164Z,21.70
2022-12-15T18:42:21.697Z,23.02
2022-12-15T18:44:51.479Z,24.83
2022-12-15T18:47:21.817Z,23.60
2022-12-15T18:49:50.722Z,22.87
2022-12-15T18:52:21.082Z,23.40
2022-12-15T18:54:50.322Z,22.42
2022-12-15T18:57:28.055Z,21.35
2022-12-15T19:00:01.302Z,18.85
2022-12-15T19:02:29.627Z,20.83
2022-12-15T19:04:57.612Z,20.25
2022-12-15T19:07:25.663Z,20.90
2022-12-15T19:09:53.825Z,20.27
2022-12-15T19:12:23.020Z,19.20
2022-12-15T19:14:51.855Z,18.33
2022-12-15T19:17:40.057Z,18.27
2022-12-15T19:20:35.797Z,18.17
2022-12-15T19:23:23.234Z,18.50
2022-12-15T19:25:51.906Z,18.80
2022-12-15T19:28:24.024Z,18.62
2022-12-15T19:30:52.348Z,19.08
2022-12-15T19:33:20.899Z,18.30
2022-12-15T19:35:51.201Z,17.00
2022-12-15T19:38:25.285Z,16.90
2022-12-15T19:40:54.804Z,17.77
2022-12-15T19:43:25.735Z,20.67
2022-12-15T19:45:54.887Z,22.95
2022-12-15T19:48:24.571Z,21.42
2022-12-15T19:50:54.647Z,28.90
2022-12-15T19:53:25.916Z,20.23
2022-12-15T19:56:01.986Z,21.52
2022-12-15T19:58:33.519Z,27.23
2022-12-15T20:01:10.944Z,21.65
2022-12-15T20:03:39.403Z,23.45
2022-12-15T20:06:14.956Z,20.70
2022-12-15T20:08:46.402Z,20.98
2022-12-15T20:11:26.134Z,18.00
2022-12-15T20:13:56.642Z,17.75
2022-12-15T20:16:25.325Z,18.25
2022-12-15T20:18:55.477Z,18.02
2022-12-15T20:21:29.589Z,18.48
2022-12-15T20:24:05.307Z,16.95
2022-12-15T20:26:34.669Z,17.92
2022-12-15T20:29:05.497Z,17.35
2022-12-15T20:31:34.260Z,19.05
2022-12-15T20:34:03.249Z,18.23
2022-12-15T20:36:31.547Z,18.80
2022-12-15T20:38:59.264Z,16.33
2022-12-15T20:41:29.136Z,18.05
2022-12-15T20:43:58.999Z,18.70
2022-12-15T20:46:38.863Z,18.90
2022-12-15T20:49:19.857Z,19.12
2022-12-15T20:51:48.886Z,18.92
2022-12-15T20:54:22.275Z,18.20
2022-12-15T20:56:51.006Z,18.33
2022-12-15T20:59:18.915Z,18.65
2022-12-15T21:01:47.001Z,17.58
2022-12-15T21:04:26.250Z,20.37
2022-12-15T21:06:55.238Z,21.42
2022-12-15T21:09:23.883Z,22.25
2022-12-15T21:11:52.660Z,20.08
2022-12-15T21:14:23.870Z,18.90
2022-12-15T21:16:51.870Z,29.75
2022-12-15T21:19:21.306Z,23.83
2022-12-15T21:21:52.143Z,21.37
2022-12-15T21:24:23.902Z,21.27
2022-12-15T21:26:52.294Z,19.20
2022-12-15T21:29:22.353Z,20.15
2022-12-15T21:31:49.809Z,22.62
2022-12-15T21:34:17.168Z,21.30
2022-12-15T21:36:47.295Z,23.38
2022-12-15T21:39:29.533Z,20.05
2022-12-15T21:42:12.176Z,20.42
2022-12-15T21:44:39.573Z,18.85
2022-12-15T21:47:52.077Z,19.55
2022-12-15T21:50:19.736Z,17.80
2022-12-15T21:52:47.886Z,18.92
2022-12-15T21:55:16.956Z,17.37
2022-12-15T21:57:44.852Z,18.08
2022-12-15T22:00:15.000Z,17.23
2022-12-15T22:02:43.295Z,17.33
2022-12-15T22:05:22.681Z,18.12
2022-12-15T22:07:50.703Z,18.58
2022-12-15T22:10:19.313Z,18.20
2022-12-15T22:12:57.466Z,17.12
2022-12-15T22:15:28.940Z,17.45
2022-12-15T22:17:56.385Z,17.58
2022-12-15T22:20:24.584Z,18.58
2022-12-15T22:22:52.278Z,18.45
2022-12-15T22:25:26.091Z,18.40
2022-12-15T22:27:54.847Z,18.02
2022-12-15T22:30:24.273Z,19.40
2022-12-15T22:32:52.454Z,18.50
2022-12-15T22:35:23.870Z,18.17
2022-12-15T22:37:53.934Z,17.62
2022-12-15T22:40:23.718Z,18.40
2022-12-15T22:42:54.961Z,18.62
2022-12-15T22:45:24.107Z,23.45
2022-12-15T22:47:52.452Z,29.10
2022-12-15T22:50:23.647Z,25.15
2022-12-15T22:52:52.029Z,22.08
2022-12-15T22:55:20.904Z,30.42
2022-12-15T22:57:59.895Z,27.10
2022-12-15T23:00:27.635Z,39.10
2022-12-15T23:02:55.238Z,20.35
2022-12-15T23:05:22.788Z,23.67
2022-12-15T23:07:50.596Z,27.87
2022-12-15T23:10:38.818Z,27.45
2022-12-15T23:13:06.701Z,22.52
2022-12-15T23:15:52.666Z,18.05
2022-12-15T23:18:22.322Z,18.20
2022-12-15T23:20:51.592Z,18.50
2022-12-15T23:23:19.611Z,17.42
2022-12-15T23:25:47.275Z,16.50
2022-12-15T23:28:14.649Z,15.93
2022-12-15T23:30:42.276Z,14.52
2022-12-15T23:33:09.926Z,14.38
2022-12-15T23:35:40.643Z,14.77
2022-12-15T23:38:07.993Z,13.90
2022-12-15T23:40:36.282Z,14.23
2022-12-15T23:43:03.672Z,13.60
2022-12-15T23:45:31.056Z,12.30
2022-12-15T23:47:58.710Z,13.43
2022-12-15T23:50:26.094Z,13.07
2022-12-15T23:52:53.437Z,12.93
2022-12-15T23:55:22.376Z,11.82
2022-12-15T23:57:50.561Z,13.18
